This is the latest recevied weather packets stored in our database for station/object K5NOC-12. If no packets are shown the sender has not sent any weather packets the latest 10 day(s).
| Time | Temp. | Humidity | Pressure | Rain* | Wind** | Luminosity | Snow |
|---|---|---|---|---|---|---|---|
| 1787673787 | 31.11° C | 39% | 1021.4 hPa | 0 mm | - | - | - |
| 1787672887 | 29.44° C | 42% | 1021.5 hPa | 0 mm | - | - | - |
| 1787671987 | 28.89° C | 44% | 1021.5 hPa | 0 mm | - | - | - |
| 1787671087 | 27.78° C | 47% | 1021.4 hPa | 0 mm | - | - | - |
| 1787670187 | 27.78° C | 48% | 1021.2 hPa | 0 mm | - | - | - |
| 1787669287 | 27.22° C | 49% | 1021.2 hPa | 0 mm | - | - | - |
| 1787668386 | 27.22° C | 50% | 1021.2 hPa | 0 mm | - | - | - |
| 1787667486 | 27.22° C | 48% | 1021.2 hPa | 0 mm | - | - | - |
| 1787666586 | 26.67° C | 49% | 1021.2 hPa | 0 mm | - | - | - |
| 1787665686 | 26.67° C | 51% | 1021.3 hPa | 0 mm | - | - | - |
| 1787664786 | 26.11° C | 51% | 1021.1 hPa | 0 mm | - | - | - |
| 1787663886 | 26.11° C | 51% | 1020.9 hPa | 0 mm | - | - | - |
| 1787662986 | 26.11° C | 50% | 1020.9 hPa | 0 mm | - | - | - |
| 1787662085 | 26.11° C | 50% | 1020.1 hPa | 0 mm | - | - | - |
| 1787661185 | 26.67° C | 48% | 1019.9 hPa | 0 mm | - | - | - |
| 1787660285 | 26.67° C | 46% | 1019.6 hPa | 0 mm | - | - | - |
| 1787659385 | 27.22° C | 44% | 1019.3 hPa | 0 mm | - | - | - |
| 1787658485 | 27.22° C | 44% | 1019.2 hPa | 0 mm | - | - | - |
| 1787657585 | 27.78° C | 43% | 1019 hPa | 0 mm | - | - | - |
| 1787656684 | 28.33° C | 41% | 1018.9 hPa | 0 mm | - | - | - |
| 1787655784 | 28.33° C | 42% | 1018.9 hPa | 0 mm | - | - | - |
| 1787654884 | 27.78° C | 44% | 1018.8 hPa | 0 mm | - | - | - |
| 1787653984 | 27.22° C | 48% | 1019.2 hPa | 0 mm | - | - | - |
| 1787653084 | 26.67° C | 49% | 1019.4 hPa | 0 mm | - | - | - |
| 1787652184 | 25.56° C | 54% | 1019.6 hPa | 0 mm | - | - | - |
* Rain latest hour (hover to see other rain measurements)
** Current wind speed in m/s (hover to see current wind gust speed)